sensor_id;sensor_type;location;lat;lon;timestamp;P1;durP1;ratioP1;P2;durP2;ratioP2
8337;SDS011;4206;48.634;9.516;2023-11-22T00:01:30;26.50;;;13.93;;
8337;SDS011;4206;48.634;9.516;2023-11-22T00:04:00;27.90;;;13.97;;
8337;SDS011;4206;48.634;9.516;2023-11-22T00:06:27;25.10;;;12.47;;
8337;SDS011;4206;48.634;9.516;2023-11-22T00:08:56;25.80;;;11.67;;
8337;SDS011;4206;48.634;9.516;2023-11-22T00:11:23;26.30;;;12.77;;
8337;SDS011;4206;48.634;9.516;2023-11-22T00:13:50;23.27;;;11.30;;
8337;SDS011;4206;48.634;9.516;2023-11-22T00:16:23;23.90;;;11.13;;
8337;SDS011;4206;48.634;9.516;2023-11-22T00:18:50;18.57;;;9.90;;
8337;SDS011;4206;48.634;9.516;2023-11-22T00:21:17;17.43;;;9.13;;
8337;SDS011;4206;48.634;9.516;2023-11-22T00:23:46;20.87;;;10.10;;
8337;SDS011;4206;48.634;9.516;2023-11-22T00:26:13;17.10;;;9.10;;
8337;SDS011;4206;48.634;9.516;2023-11-22T00:28:41;18.30;;;8.50;;
8337;SDS011;4206;48.634;9.516;2023-11-22T00:31:08;18.77;;;9.00;;
8337;SDS011;4206;48.634;9.516;2023-11-22T00:33:35;20.93;;;9.50;;
8337;SDS011;4206;48.634;9.516;2023-11-22T00:36:02;19.53;;;10.20;;
8337;SDS011;4206;48.634;9.516;2023-11-22T00:38:30;23.00;;;9.97;;
8337;SDS011;4206;48.634;9.516;2023-11-22T00:40:59;21.07;;;10.57;;
8337;SDS011;4206;48.634;9.516;2023-11-22T00:43:26;15.10;;;9.37;;
8337;SDS011;4206;48.634;9.516;2023-11-22T00:45:53;13.73;;;6.47;;
8337;SDS011;4206;48.634;9.516;2023-11-22T00:48:20;12.93;;;6.43;;
8337;SDS011;4206;48.634;9.516;2023-11-22T00:50:47;7.93;;;4.30;;
8337;SDS011;4206;48.634;9.516;2023-11-22T00:53:14;7.63;;;3.33;;
8337;SDS011;4206;48.634;9.516;2023-11-22T00:55:41;8.23;;;4.20;;
8337;SDS011;4206;48.634;9.516;2023-11-22T00:58:08;10.40;;;4.67;;
8337;SDS011;4206;48.634;9.516;2023-11-22T01:00:35;15.23;;;5.40;;
8337;SDS011;4206;48.634;9.516;2023-11-22T01:03:02;9.63;;;4.83;;
8337;SDS011;4206;48.634;9.516;2023-11-22T01:05:31;8.33;;;4.20;;
8337;SDS011;4206;48.634;9.516;2023-11-22T01:07:58;10.37;;;4.80;;
8337;SDS011;4206;48.634;9.516;2023-11-22T01:10:25;8.97;;;4.00;;
8337;SDS011;4206;48.634;9.516;2023-11-22T01:12:52;9.20;;;4.63;;
8337;SDS011;4206;48.634;9.516;2023-11-22T01:15:19;11.93;;;4.53;;
8337;SDS011;4206;48.634;9.516;2023-11-22T01:17:46;3.20;;;2.70;;
8337;SDS011;4206;48.634;9.516;2023-11-22T01:20:13;4.40;;;3.07;;
8337;SDS011;4206;48.634;9.516;2023-11-22T01:22:40;2.90;;;2.70;;
8337;SDS011;4206;48.634;9.516;2023-11-22T01:25:08;5.20;;;2.90;;
8337;SDS011;4206;48.634;9.516;2023-11-22T01:27:35;3.43;;;2.80;;
8337;SDS011;4206;48.634;9.516;2023-11-22T01:30:02;5.33;;;3.50;;
8337;SDS011;4206;48.634;9.516;2023-11-22T01:32:29;4.33;;;2.73;;
8337;SDS011;4206;48.634;9.516;2023-11-22T01:34:56;4.17;;;3.20;;
8337;SDS011;4206;48.634;9.516;2023-11-22T01:37:26;4.30;;;3.10;;
8337;SDS011;4206;48.634;9.516;2023-11-22T01:39:53;4.80;;;3.40;;
8337;SDS011;4206;48.634;9.516;2023-11-22T01:42:20;7.10;;;4.00;;
8337;SDS011;4206;48.634;9.516;2023-11-22T01:44:47;5.80;;;3.87;;
8337;SDS011;4206;48.634;9.516;2023-11-22T01:47:14;5.47;;;3.73;;
8337;SDS011;4206;48.634;9.516;2023-11-22T01:49:41;5.47;;;3.90;;
8337;SDS011;4206;48.634;9.516;2023-11-22T01:52:08;5.50;;;4.33;;
8337;SDS011;4206;48.634;9.516;2023-11-22T01:54:35;9.10;;;5.37;;
8337;SDS011;4206;48.634;9.516;2023-11-22T01:57:03;8.30;;;5.20;;
8337;SDS011;4206;48.634;9.516;2023-11-22T01:59:34;8.10;;;5.33;;
8337;SDS011;4206;48.634;9.516;2023-11-22T02:02:02;9.00;;;5.33;;
8337;SDS011;4206;48.634;9.516;2023-11-22T02:04:30;12.40;;;6.17;;
8337;SDS011;4206;48.634;9.516;2023-11-22T02:06:57;10.07;;;6.27;;
8337;SDS011;4206;48.634;9.516;2023-11-22T02:09:24;8.60;;;5.20;;
8337;SDS011;4206;48.634;9.516;2023-11-22T02:11:51;11.60;;;6.90;;
8337;SDS011;4206;48.634;9.516;2023-11-22T02:14:18;10.53;;;6.03;;
8337;SDS011;4206;48.634;9.516;2023-11-22T02:16:46;12.43;;;5.83;;
8337;SDS011;4206;48.634;9.516;2023-11-22T02:19:14;11.40;;;6.27;;
8337;SDS011;4206;48.634;9.516;2023-11-22T02:21:43;17.03;;;7.00;;
8337;SDS011;4206;48.634;9.516;2023-11-22T02:24:10;10.03;;;6.60;;
8337;SDS011;4206;48.634;9.516;2023-11-22T02:26:38;9.83;;;6.23;;
8337;SDS011;4206;48.634;9.516;2023-11-22T02:29:09;9.67;;;5.70;;
8337;SDS011;4206;48.634;9.516;2023-11-22T02:31:36;13.80;;;5.30;;
8337;SDS011;4206;48.634;9.516;2023-11-22T02:34:03;8.53;;;5.20;;
8337;SDS011;4206;48.634;9.516;2023-11-22T02:36:31;6.87;;;4.43;;
8337;SDS011;4206;48.634;9.516;2023-11-22T02:38:58;7.30;;;4.77;;
8337;SDS011;4206;48.634;9.516;2023-11-22T02:41:26;10.73;;;5.07;;
8337;SDS011;4206;48.634;9.516;2023-11-22T02:43:56;8.47;;;5.17;;
8337;SDS011;4206;48.634;9.516;2023-11-22T02:46:25;7.83;;;4.80;;
8337;SDS011;4206;48.634;9.516;2023-11-22T02:48:54;9.03;;;5.40;;
8337;SDS011;4206;48.634;9.516;2023-11-22T02:51:21;8.53;;;4.77;;
8337;SDS011;4206;48.634;9.516;2023-11-22T02:53:48;7.70;;;5.20;;
8337;SDS011;4206;48.634;9.516;2023-11-22T02:56:16;8.87;;;4.90;;
8337;SDS011;4206;48.634;9.516;2023-11-22T02:58:43;9.60;;;4.50;;
8337;SDS011;4206;48.634;9.516;2023-11-22T03:01:10;10.20;;;4.80;;
8337;SDS011;4206;48.634;9.516;2023-11-22T03:03:37;6.10;;;4.13;;
8337;SDS011;4206;48.634;9.516;2023-11-22T03:06:04;6.40;;;4.10;;
8337;SDS011;4206;48.634;9.516;2023-11-22T03:08:33;8.40;;;4.50;;
8337;SDS011;4206;48.634;9.516;2023-11-22T03:11:00;7.60;;;4.50;;
8337;SDS011;4206;48.634;9.516;2023-11-22T03:13:28;9.37;;;5.03;;
8337;SDS011;4206;48.634;9.516;2023-11-22T03:15:56;9.73;;;6.00;;
8337;SDS011;4206;48.634;9.516;2023-11-22T03:18:23;10.50;;;5.83;;
8337;SDS011;4206;48.634;9.516;2023-11-22T03:20:50;17.00;;;6.57;;
8337;SDS011;4206;48.634;9.516;2023-11-22T03:23:20;10.93;;;6.57;;
8337;SDS011;4206;48.634;9.516;2023-11-22T03:25:47;9.87;;;6.43;;
8337;SDS011;4206;48.634;9.516;2023-11-22T03:28:15;14.87;;;6.90;;
8337;SDS011;4206;48.634;9.516;2023-11-22T03:30:42;12.50;;;7.03;;
8337;SDS011;4206;48.634;9.516;2023-11-22T03:33:09;12.50;;;7.17;;
8337;SDS011;4206;48.634;9.516;2023-11-22T03:35:36;11.97;;;6.70;;
8337;SDS011;4206;48.634;9.516;2023-11-22T03:38:03;10.83;;;7.00;;
8337;SDS011;4206;48.634;9.516;2023-11-22T03:40:30;14.30;;;7.47;;
8337;SDS011;4206;48.634;9.516;2023-11-22T03:42:57;13.10;;;7.70;;
8337;SDS011;4206;48.634;9.516;2023-11-22T03:45:24;12.13;;;7.37;;
8337;SDS011;4206;48.634;9.516;2023-11-22T03:47:51;13.60;;;7.67;;
8337;SDS011;4206;48.634;9.516;2023-11-22T03:50:18;13.27;;;7.97;;
8337;SDS011;4206;48.634;9.516;2023-11-22T03:52:45;14.70;;;7.53;;
8337;SDS011;4206;48.634;9.516;2023-11-22T03:55:13;18.50;;;8.13;;
8337;SDS011;4206;48.634;9.516;2023-11-22T03:57:40;15.90;;;7.80;;
8337;SDS011;4206;48.634;9.516;2023-11-22T04:00:07;11.27;;;6.87;;
8337;SDS011;4206;48.634;9.516;2023-11-22T04:02:37;12.50;;;7.10;;
8337;SDS011;4206;48.634;9.516;2023-11-22T04:05:04;12.07;;;7.40;;
8337;SDS011;4206;48.634;9.516;2023-11-22T04:07:33;12.13;;;7.27;;
8337;SDS011;4206;48.634;9.516;2023-11-22T04:10:00;12.07;;;7.07;;
8337;SDS011;4206;48.634;9.516;2023-11-22T04:12:27;12.63;;;6.30;;
8337;SDS011;4206;48.634;9.516;2023-11-22T04:14:54;10.97;;;6.53;;
8337;SDS011;4206;48.634;9.516;2023-11-22T04:17:21;9.70;;;6.80;;
8337;SDS011;4206;48.634;9.516;2023-11-22T04:19:49;11.27;;;6.73;;
8337;SDS011;4206;48.634;9.516;2023-11-22T04:22:15;11.80;;;7.20;;
8337;SDS011;4206;48.634;9.516;2023-11-22T04:24:42;10.60;;;7.07;;
8337;SDS011;4206;48.634;9.516;2023-11-22T04:27:09;10.40;;;6.60;;
8337;SDS011;4206;48.634;9.516;2023-11-22T04:29:36;12.70;;;6.50;;
8337;SDS011;4206;48.634;9.516;2023-11-22T04:32:03;10.87;;;5.90;;
8337;SDS011;4206;48.634;9.516;2023-11-22T04:34:30;11.00;;;6.40;;
8337;SDS011;4206;48.634;9.516;2023-11-22T04:36:57;15.60;;;6.70;;
8337;SDS011;4206;48.634;9.516;2023-11-22T04:39:24;12.30;;;6.70;;
8337;SDS011;4206;48.634;9.516;2023-11-22T04:41:51;15.53;;;6.80;;
8337;SDS011;4206;48.634;9.516;2023-11-22T04:44:18;11.37;;;6.83;;
8337;SDS011;4206;48.634;9.516;2023-11-22T04:46:45;10.97;;;6.60;;
8337;SDS011;4206;48.634;9.516;2023-11-22T04:49:12;12.43;;;6.40;;
8337;SDS011;4206;48.634;9.516;2023-11-22T04:51:39;11.47;;;6.50;;
8337;SDS011;4206;48.634;9.516;2023-11-22T04:54:06;12.60;;;7.20;;
8337;SDS011;4206;48.634;9.516;2023-11-22T04:56:33;12.67;;;7.50;;
8337;SDS011;4206;48.634;9.516;2023-11-22T04:59:00;12.30;;;6.70;;
8337;SDS011;4206;48.634;9.516;2023-11-22T05:01:34;14.93;;;7.33;;
8337;SDS011;4206;48.634;9.516;2023-11-22T05:04:02;8.93;;;6.23;;
8337;SDS011;4206;48.634;9.516;2023-11-22T05:06:29;12.10;;;6.50;;
8337;SDS011;4206;48.634;9.516;2023-11-22T05:08:56;14.10;;;7.20;;
8337;SDS011;4206;48.634;9.516;2023-11-22T05:11:22;12.37;;;6.37;;
8337;SDS011;4206;48.634;9.516;2023-11-22T05:13:50;11.97;;;7.30;;
8337;SDS011;4206;48.634;9.516;2023-11-22T05:16:17;13.73;;;7.73;;
8337;SDS011;4206;48.634;9.516;2023-11-22T05:18:44;13.80;;;6.80;;
8337;SDS011;4206;48.634;9.516;2023-11-22T05:21:11;12.23;;;7.40;;
8337;SDS011;4206;48.634;9.516;2023-11-22T05:23:38;14.67;;;7.93;;
8337;SDS011;4206;48.634;9.516;2023-11-22T05:26:10;15.17;;;8.20;;
8337;SDS011;4206;48.634;9.516;2023-11-22T05:28:37;10.20;;;6.43;;
8337;SDS011;4206;48.634;9.516;2023-11-22T05:31:04;9.87;;;6.40;;
8337;SDS011;4206;48.634;9.516;2023-11-22T05:33:31;16.03;;;7.97;;
8337;SDS011;4206;48.634;9.516;2023-11-22T05:35:58;15.10;;;8.20;;
8337;SDS011;4206;48.634;9.516;2023-11-22T05:38:25;13.60;;;7.40;;
8337;SDS011;4206;48.634;9.516;2023-11-22T05:40:53;13.70;;;6.70;;
8337;SDS011;4206;48.634;9.516;2023-11-22T05:43:20;13.77;;;7.40;;
8337;SDS011;4206;48.634;9.516;2023-11-22T05:45:52;15.17;;;7.53;;
8337;SDS011;4206;48.634;9.516;2023-11-22T05:48:19;14.30;;;7.20;;
8337;SDS011;4206;48.634;9.516;2023-11-22T05:50:47;14.47;;;8.20;;
8337;SDS011;4206;48.634;9.516;2023-11-22T05:53:14;11.30;;;7.40;;
8337;SDS011;4206;48.634;9.516;2023-11-22T05:55:46;12.87;;;7.50;;
8337;SDS011;4206;48.634;9.516;2023-11-22T05:58:14;14.37;;;7.37;;
8337;SDS011;4206;48.634;9.516;2023-11-22T06:00:43;12.00;;;6.57;;
8337;SDS011;4206;48.634;9.516;2023-11-22T06:03:11;13.20;;;6.87;;
8337;SDS011;4206;48.634;9.516;2023-11-22T06:05:39;12.60;;;7.10;;
8337;SDS011;4206;48.634;9.516;2023-11-22T06:08:06;13.13;;;7.70;;
8337;SDS011;4206;48.634;9.516;2023-11-22T06:10:35;12.10;;;6.97;;
8337;SDS011;4206;48.634;9.516;2023-11-22T06:13:04;13.80;;;8.00;;
8337;SDS011;4206;48.634;9.516;2023-11-22T06:15:31;11.37;;;7.00;;
8337;SDS011;4206;48.634;9.516;2023-11-22T06:17:58;13.17;;;6.83;;
8337;SDS011;4206;48.634;9.516;2023-11-22T06:20:26;10.97;;;6.60;;
8337;SDS011;4206;48.634;9.516;2023-11-22T06:22:53;15.13;;;7.20;;
8337;SDS011;4206;48.634;9.516;2023-11-22T06:25:20;12.53;;;7.10;;
8337;SDS011;4206;48.634;9.516;2023-11-22T06:27:47;10.53;;;6.10;;
8337;SDS011;4206;48.634;9.516;2023-11-22T06:30:15;16.93;;;7.00;;
8337;SDS011;4206;48.634;9.516;2023-11-22T06:32:42;13.43;;;7.40;;
8337;SDS011;4206;48.634;9.516;2023-11-22T06:35:09;11.17;;;6.50;;
8337;SDS011;4206;48.634;9.516;2023-11-22T06:37:37;13.63;;;6.87;;
8337;SDS011;4206;48.634;9.516;2023-11-22T06:40:07;13.60;;;6.60;;
8337;SDS011;4206;48.634;9.516;2023-11-22T06:42:35;11.77;;;7.10;;
8337;SDS011;4206;48.634;9.516;2023-11-22T06:45:02;12.97;;;7.37;;
8337;SDS011;4206;48.634;9.516;2023-11-22T06:47:30;12.63;;;6.60;;
8337;SDS011;4206;48.634;9.516;2023-11-22T06:49:57;9.83;;;5.77;;
8337;SDS011;4206;48.634;9.516;2023-11-22T06:52:24;10.97;;;6.07;;
8337;SDS011;4206;48.634;9.516;2023-11-22T06:54:51;13.10;;;5.90;;
8337;SDS011;4206;48.634;9.516;2023-11-22T06:57:18;8.70;;;5.57;;
8337;SDS011;4206;48.634;9.516;2023-11-22T06:59:45;10.47;;;6.20;;
8337;SDS011;4206;48.634;9.516;2023-11-22T07:02:12;10.03;;;5.90;;
8337;SDS011;4206;48.634;9.516;2023-11-22T07:04:40;9.50;;;5.77;;
8337;SDS011;4206;48.634;9.516;2023-11-22T07:07:07;11.00;;;6.47;;
8337;SDS011;4206;48.634;9.516;2023-11-22T07:09:37;14.80;;;7.13;;
8337;SDS011;4206;48.634;9.516;2023-11-22T07:12:08;9.30;;;5.90;;
8337;SDS011;4206;48.634;9.516;2023-11-22T07:14:34;10.77;;;6.47;;
8337;SDS011;4206;48.634;9.516;2023-11-22T07:17:02;12.37;;;6.60;;
8337;SDS011;4206;48.634;9.516;2023-11-22T07:19:31;13.30;;;7.60;;
8337;SDS011;4206;48.634;9.516;2023-11-22T07:22:00;12.17;;;6.97;;
8337;SDS011;4206;48.634;9.516;2023-11-22T07:24:30;11.53;;;6.20;;
8337;SDS011;4206;48.634;9.516;2023-11-22T07:27:00;12.60;;;7.20;;
8337;SDS011;4206;48.634;9.516;2023-11-22T07:29:27;12.03;;;6.87;;
8337;SDS011;4206;48.634;9.516;2023-11-22T07:31:55;10.03;;;6.50;;
8337;SDS011;4206;48.634;9.516;2023-11-22T07:34:24;10.93;;;6.87;;
8337;SDS011;4206;48.634;9.516;2023-11-22T07:36:51;13.20;;;7.80;;
8337;SDS011;4206;48.634;9.516;2023-11-22T07:39:17;10.10;;;6.30;;
8337;SDS011;4206;48.634;9.516;2023-11-22T07:41:46;11.33;;;6.50;;
8337;SDS011;4206;48.634;9.516;2023-11-22T07:44:15;12.50;;;7.30;;
8337;SDS011;4206;48.634;9.516;2023-11-22T07:46:42;10.90;;;6.73;;
8337;SDS011;4206;48.634;9.516;2023-11-22T07:49:13;11.63;;;6.77;;
8337;SDS011;4206;48.634;9.516;2023-11-22T07:51:40;10.80;;;6.67;;
8337;SDS011;4206;48.634;9.516;2023-11-22T07:54:07;13.50;;;7.70;;
8337;SDS011;4206;48.634;9.516;2023-11-22T07:56:35;12.47;;;8.00;;
8337;SDS011;4206;48.634;9.516;2023-11-22T07:59:02;10.07;;;7.10;;
8337;SDS011;4206;48.634;9.516;2023-11-22T08:01:28;11.57;;;7.53;;
8337;SDS011;4206;48.634;9.516;2023-11-22T08:03:58;14.10;;;7.60;;
8337;SDS011;4206;48.634;9.516;2023-11-22T08:06:25;10.70;;;6.27;;
8337;SDS011;4206;48.634;9.516;2023-11-22T08:08:53;12.70;;;7.10;;
8337;SDS011;4206;48.634;9.516;2023-11-22T08:11:20;11.83;;;6.80;;
8337;SDS011;4206;48.634;9.516;2023-11-22T08:13:47;9.33;;;5.80;;
8337;SDS011;4206;48.634;9.516;2023-11-22T08:16:14;12.23;;;7.77;;
8337;SDS011;4206;48.634;9.516;2023-11-22T08:18:41;10.60;;;6.10;;
8337;SDS011;4206;48.634;9.516;2023-11-22T08:21:10;12.43;;;7.03;;
8337;SDS011;4206;48.634;9.516;2023-11-22T08:23:37;11.20;;;7.17;;
8337;SDS011;4206;48.634;9.516;2023-11-22T08:26:04;10.80;;;6.53;;
8337;SDS011;4206;48.634;9.516;2023-11-22T08:28:32;11.23;;;6.80;;
8337;SDS011;4206;48.634;9.516;2023-11-22T08:31:00;9.63;;;6.27;;
8337;SDS011;4206;48.634;9.516;2023-11-22T08:33:27;9.57;;;6.80;;
8337;SDS011;4206;48.634;9.516;2023-11-22T08:35:54;10.07;;;5.63;;
8337;SDS011;4206;48.634;9.516;2023-11-22T08:38:24;11.37;;;6.60;;
8337;SDS011;4206;48.634;9.516;2023-11-22T08:40:53;12.87;;;6.60;;
8337;SDS011;4206;48.634;9.516;2023-11-22T08:43:21;9.30;;;6.33;;
8337;SDS011;4206;48.634;9.516;2023-11-22T08:45:49;11.90;;;5.90;;
8337;SDS011;4206;48.634;9.516;2023-11-22T08:48:26;12.80;;;6.10;;
8337;SDS011;4206;48.634;9.516;2023-11-22T08:50:53;10.70;;;6.20;;
8337;SDS011;4206;48.634;9.516;2023-11-22T08:53:22;11.63;;;6.30;;
8337;SDS011;4206;48.634;9.516;2023-11-22T08:55:49;10.10;;;5.70;;
8337;SDS011;4206;48.634;9.516;2023-11-22T08:58:16;9.73;;;6.67;;
8337;SDS011;4206;48.634;9.516;2023-11-22T09:00:43;9.40;;;6.10;;
8337;SDS011;4206;48.634;9.516;2023-11-22T09:03:11;14.00;;;7.23;;
8337;SDS011;4206;48.634;9.516;2023-11-22T09:05:39;10.40;;;6.73;;
8337;SDS011;4206;48.634;9.516;2023-11-22T09:08:06;10.20;;;6.50;;
8337;SDS011;4206;48.634;9.516;2023-11-22T09:10:50;11.17;;;6.27;;
8337;SDS011;4206;48.634;9.516;2023-11-22T09:13:17;10.90;;;6.80;;
8337;SDS011;4206;48.634;9.516;2023-11-22T09:15:45;12.20;;;6.53;;
8337;SDS011;4206;48.634;9.516;2023-11-22T09:18:12;10.07;;;6.27;;
8337;SDS011;4206;48.634;9.516;2023-11-22T09:20:39;11.07;;;6.53;;
8337;SDS011;4206;48.634;9.516;2023-11-22T09:23:10;12.20;;;6.87;;
8337;SDS011;4206;48.634;9.516;2023-11-22T09:25:38;12.57;;;7.47;;
8337;SDS011;4206;48.634;9.516;2023-11-22T09:28:05;12.43;;;7.23;;
8337;SDS011;4206;48.634;9.516;2023-11-22T09:30:34;11.37;;;6.77;;
8337;SDS011;4206;48.634;9.516;2023-11-22T09:33:02;8.20;;;6.10;;
8337;SDS011;4206;48.634;9.516;2023-11-22T09:35:35;11.30;;;6.80;;
8337;SDS011;4206;48.634;9.516;2023-11-22T09:38:04;8.63;;;5.70;;
8337;SDS011;4206;48.634;9.516;2023-11-22T09:40:46;8.20;;;6.03;;
8337;SDS011;4206;48.634;9.516;2023-11-22T09:43:14;12.50;;;6.23;;
8337;SDS011;4206;48.634;9.516;2023-11-22T09:45:47;10.50;;;6.57;;
8337;SDS011;4206;48.634;9.516;2023-11-22T09:48:21;13.17;;;8.17;;
8337;SDS011;4206;48.634;9.516;2023-11-22T09:50:54;11.20;;;7.70;;
8337;SDS011;4206;48.634;9.516;2023-11-22T09:56:07;20.43;;;12.70;;
8337;SDS011;4206;48.634;9.516;2023-11-22T09:58:38;16.20;;;9.93;;
8337;SDS011;4206;48.634;9.516;2023-11-22T10:01:11;18.83;;;8.60;;
8337;SDS011;4206;48.634;9.516;2023-11-22T10:03:40;14.47;;;7.70;;
8337;SDS011;4206;48.634;9.516;2023-11-22T10:06:07;10.60;;;7.67;;
8337;SDS011;4206;48.634;9.516;2023-11-22T10:08:34;10.27;;;8.23;;
8337;SDS011;4206;48.634;9.516;2023-11-22T10:11:03;13.97;;;7.90;;
8337;SDS011;4206;48.634;9.516;2023-11-22T10:13:30;13.80;;;8.13;;
8337;SDS011;4206;48.634;9.516;2023-11-22T10:16:08;10.60;;;7.73;;
8337;SDS011;4206;48.634;9.516;2023-11-22T10:18:39;14.20;;;7.20;;
8337;SDS011;4206;48.634;9.516;2023-11-22T10:23:55;10.97;;;7.30;;
8337;SDS011;4206;48.634;9.516;2023-11-22T10:26:24;13.90;;;8.47;;
8337;SDS011;4206;48.634;9.516;2023-11-22T10:28:54;13.67;;;8.40;;
8337;SDS011;4206;48.634;9.516;2023-11-22T10:31:22;11.43;;;7.70;;
8337;SDS011;4206;48.634;9.516;2023-11-22T10:33:50;11.10;;;7.43;;
8337;SDS011;4206;48.634;9.516;2023-11-22T10:36:20;12.30;;;7.30;;
8337;SDS011;4206;48.634;9.516;2023-11-22T10:38:49;10.00;;;7.20;;
8337;SDS011;4206;48.634;9.516;2023-11-22T10:41:19;12.17;;;6.90;;
8337;SDS011;4206;48.634;9.516;2023-11-22T10:43:46;12.60;;;6.70;;
8337;SDS011;4206;48.634;9.516;2023-11-22T10:46:14;13.90;;;7.10;;
8337;SDS011;4206;48.634;9.516;2023-11-22T10:48:43;12.93;;;7.40;;
8337;SDS011;4206;48.634;9.516;2023-11-22T10:51:11;9.53;;;6.53;;
8337;SDS011;4206;48.634;9.516;2023-11-22T10:53:45;9.20;;;6.40;;
8337;SDS011;4206;48.634;9.516;2023-11-22T10:56:17;10.93;;;6.83;;
8337;SDS011;4206;48.634;9.516;2023-11-22T10:58:51;9.70;;;6.50;;
8337;SDS011;4206;48.634;9.516;2023-11-22T11:01:21;9.43;;;6.23;;
8337;SDS011;4206;48.634;9.516;2023-11-22T11:03:56;10.40;;;7.10;;
8337;SDS011;4206;48.634;9.516;2023-11-22T11:06:28;9.83;;;6.17;;
8337;SDS011;4206;48.634;9.516;2023-11-22T11:09:00;9.17;;;6.17;;
8337;SDS011;4206;48.634;9.516;2023-11-22T11:11:32;12.00;;;7.90;;
8337;SDS011;4206;48.634;9.516;2023-11-22T11:14:01;13.60;;;7.97;;
8337;SDS011;4206;48.634;9.516;2023-11-22T11:16:30;12.10;;;7.50;;
8337;SDS011;4206;48.634;9.516;2023-11-22T11:19:00;11.57;;;7.50;;
8337;SDS011;4206;48.634;9.516;2023-11-22T11:21:28;12.00;;;5.90;;
8337;SDS011;4206;48.634;9.516;2023-11-22T11:23:56;8.33;;;6.17;;
8337;SDS011;4206;48.634;9.516;2023-11-22T11:26:33;8.80;;;4.97;;
8337;SDS011;4206;48.634;9.516;2023-11-22T11:29:01;9.80;;;5.83;;
8337;SDS011;4206;48.634;9.516;2023-11-22T11:31:32;10.07;;;8.00;;
8337;SDS011;4206;48.634;9.516;2023-11-22T11:34:02;8.67;;;5.83;;
8337;SDS011;4206;48.634;9.516;2023-11-22T11:36:32;9.17;;;5.80;;
8337;SDS011;4206;48.634;9.516;2023-11-22T11:39:00;7.40;;;5.50;;
8337;SDS011;4206;48.634;9.516;2023-11-22T11:41:30;7.80;;;5.57;;
8337;SDS011;4206;48.634;9.516;2023-11-22T11:44:01;9.90;;;6.10;;
8337;SDS011;4206;48.634;9.516;2023-11-22T11:46:44;8.07;;;4.87;;
8337;SDS011;4206;48.634;9.516;2023-11-22T11:49:44;8.33;;;5.60;;
8337;SDS011;4206;48.634;9.516;2023-11-22T11:52:32;23.00;;;14.47;;
8337;SDS011;4206;48.634;9.516;2023-11-22T11:55:20;14.23;;;9.00;;
8337;SDS011;4206;48.634;9.516;2023-11-22T11:58:29;46.87;;;22.07;;
8337;SDS011;4206;48.634;9.516;2023-11-22T12:01:12;10.90;;;7.10;;
8337;SDS011;4206;48.634;9.516;2023-11-22T12:03:40;10.90;;;7.30;;
8337;SDS011;4206;48.634;9.516;2023-11-22T12:06:07;8.63;;;6.07;;
8337;SDS011;4206;48.634;9.516;2023-11-22T12:08:34;9.40;;;5.80;;
8337;SDS011;4206;48.634;9.516;2023-11-22T12:11:03;7.60;;;5.10;;
8337;SDS011;4206;48.634;9.516;2023-11-22T12:13:33;10.43;;;6.13;;
8337;SDS011;4206;48.634;9.516;2023-11-22T12:16:01;16.57;;;9.33;;
8337;SDS011;4206;48.634;9.516;2023-11-22T12:18:29;10.20;;;6.73;;
8337;SDS011;4206;48.634;9.516;2023-11-22T12:20:59;11.00;;;5.87;;
8337;SDS011;4206;48.634;9.516;2023-11-22T12:23:27;7.63;;;5.13;;
8337;SDS011;4206;48.634;9.516;2023-11-22T12:25:55;6.47;;;5.17;;
8337;SDS011;4206;48.634;9.516;2023-11-22T12:28:23;11.13;;;6.03;;
8337;SDS011;4206;48.634;9.516;2023-11-22T12:30:54;6.90;;;5.23;;
8337;SDS011;4206;48.634;9.516;2023-11-22T12:33:21;7.97;;;5.57;;
8337;SDS011;4206;48.634;9.516;2023-11-22T12:35:49;12.43;;;5.70;;
8337;SDS011;4206;48.634;9.516;2023-11-22T12:38:16;7.57;;;5.60;;
8337;SDS011;4206;48.634;9.516;2023-11-22T12:40:43;7.00;;;4.63;;
8337;SDS011;4206;48.634;9.516;2023-11-22T12:43:13;7.73;;;5.50;;
8337;SDS011;4206;48.634;9.516;2023-11-22T12:45:41;6.50;;;5.20;;
8337;SDS011;4206;48.634;9.516;2023-11-22T12:50:53;6.70;;;5.37;;
8337;SDS011;4206;48.634;9.516;2023-11-22T12:53:21;8.20;;;5.37;;
8337;SDS011;4206;48.634;9.516;2023-11-22T12:55:49;10.67;;;7.10;;
8337;SDS011;4206;48.634;9.516;2023-11-22T12:58:17;14.60;;;7.43;;
8337;SDS011;4206;48.634;9.516;2023-11-22T13:00:47;8.50;;;6.03;;
8337;SDS011;4206;48.634;9.516;2023-11-22T13:03:15;7.30;;;5.37;;
8337;SDS011;4206;48.634;9.516;2023-11-22T13:05:43;5.37;;;4.20;;
8337;SDS011;4206;48.634;9.516;2023-11-22T13:08:13;9.47;;;4.43;;
8337;SDS011;4206;48.634;9.516;2023-11-22T13:10:44;15.00;;;7.37;;
8337;SDS011;4206;48.634;9.516;2023-11-22T13:13:15;11.37;;;6.43;;
8337;SDS011;4206;48.634;9.516;2023-11-22T13:15:45;8.63;;;4.40;;
8337;SDS011;4206;48.634;9.516;2023-11-22T13:18:13;7.90;;;5.37;;
8337;SDS011;4206;48.634;9.516;2023-11-22T13:20:41;8.17;;;5.67;;
8337;SDS011;4206;48.634;9.516;2023-11-22T13:23:11;10.80;;;6.43;;
8337;SDS011;4206;48.634;9.516;2023-11-22T13:25:40;10.10;;;6.77;;
8337;SDS011;4206;48.634;9.516;2023-11-22T13:28:08;11.33;;;6.77;;
8337;SDS011;4206;48.634;9.516;2023-11-22T13:30:35;9.47;;;5.73;;
8337;SDS011;4206;48.634;9.516;2023-11-22T13:33:02;9.70;;;6.60;;
8337;SDS011;4206;48.634;9.516;2023-11-22T13:35:29;7.90;;;5.87;;
8337;SDS011;4206;48.634;9.516;2023-11-22T13:37:58;8.17;;;5.50;;
8337;SDS011;4206;48.634;9.516;2023-11-22T13:40:27;7.73;;;5.60;;
8337;SDS011;4206;48.634;9.516;2023-11-22T13:42:57;8.90;;;5.83;;
8337;SDS011;4206;48.634;9.516;2023-11-22T13:45:25;10.40;;;5.30;;
8337;SDS011;4206;48.634;9.516;2023-11-22T13:47:52;8.10;;;5.90;;
8337;SDS011;4206;48.634;9.516;2023-11-22T13:50:27;13.03;;;7.10;;
8337;SDS011;4206;48.634;9.516;2023-11-22T13:52:54;7.20;;;6.03;;
8337;SDS011;4206;48.634;9.516;2023-11-22T13:55:22;10.47;;;6.20;;
8337;SDS011;4206;48.634;9.516;2023-11-22T13:57:51;8.87;;;5.67;;
8337;SDS011;4206;48.634;9.516;2023-11-22T14:00:20;7.20;;;5.20;;
8337;SDS011;4206;48.634;9.516;2023-11-22T14:02:51;6.33;;;4.87;;
8337;SDS011;4206;48.634;9.516;2023-11-22T14:05:22;8.77;;;5.17;;
8337;SDS011;4206;48.634;9.516;2023-11-22T14:07:50;9.27;;;6.10;;
8337;SDS011;4206;48.634;9.516;2023-11-22T14:10:18;9.00;;;5.50;;
8337;SDS011;4206;48.634;9.516;2023-11-22T14:12:45;8.60;;;5.80;;
8337;SDS011;4206;48.634;9.516;2023-11-22T14:15:13;8.77;;;5.83;;
8337;SDS011;4206;48.634;9.516;2023-11-22T14:17:41;11.43;;;7.53;;
8337;SDS011;4206;48.634;9.516;2023-11-22T14:22:37;20.60;;;11.00;;
8337;SDS011;4206;48.634;9.516;2023-11-22T14:25:06;18.90;;;10.00;;
8337;SDS011;4206;48.634;9.516;2023-11-22T14:27:38;13.97;;;8.27;;
8337;SDS011;4206;48.634;9.516;2023-11-22T14:30:06;8.27;;;5.50;;
8337;SDS011;4206;48.634;9.516;2023-11-22T14:32:34;13.10;;;5.53;;
8337;SDS011;4206;48.634;9.516;2023-11-22T14:35:02;12.97;;;6.60;;
8337;SDS011;4206;48.634;9.516;2023-11-22T14:37:30;9.07;;;6.20;;
8337;SDS011;4206;48.634;9.516;2023-11-22T14:39:57;11.73;;;6.37;;
8337;SDS011;4206;48.634;9.516;2023-11-22T14:42:25;10.80;;;6.20;;
8337;SDS011;4206;48.634;9.516;2023-11-22T14:44:53;7.70;;;5.03;;
8337;SDS011;4206;48.634;9.516;2023-11-22T14:47:21;11.83;;;7.30;;
8337;SDS011;4206;48.634;9.516;2023-11-22T14:49:51;9.30;;;6.23;;
8337;SDS011;4206;48.634;9.516;2023-11-22T14:52:19;8.30;;;6.20;;
8337;SDS011;4206;48.634;9.516;2023-11-22T14:54:47;7.33;;;5.20;;
8337;SDS011;4206;48.634;9.516;2023-11-22T14:57:15;9.23;;;6.30;;
8337;SDS011;4206;48.634;9.516;2023-11-22T14:59:43;8.70;;;6.53;;
8337;SDS011;4206;48.634;9.516;2023-11-22T15:02:13;10.07;;;5.70;;
8337;SDS011;4206;48.634;9.516;2023-11-22T15:04:41;6.80;;;4.57;;
8337;SDS011;4206;48.634;9.516;2023-11-22T15:07:09;9.27;;;5.30;;
8337;SDS011;4206;48.634;9.516;2023-11-22T15:09:37;11.23;;;6.70;;
8337;SDS011;4206;48.634;9.516;2023-11-22T15:12:05;11.67;;;7.40;;
8337;SDS011;4206;48.634;9.516;2023-11-22T15:14:32;7.90;;;5.23;;
8337;SDS011;4206;48.634;9.516;2023-11-22T15:17:00;8.37;;;6.20;;
8337;SDS011;4206;48.634;9.516;2023-11-22T15:19:30;7.43;;;5.50;;
8337;SDS011;4206;48.634;9.516;2023-11-22T15:21:57;7.73;;;5.63;;
8337;SDS011;4206;48.634;9.516;2023-11-22T15:24:25;7.17;;;4.87;;